sensor_id;sensor_type;location;lat;lon;timestamp;pressure;altitude;pressure_sealevel;temperature;humidity
27613;BME280;15036;48.094;-1.690;2022-07-29T00:00:41;100924.88;;;25.68;45.45
27613;BME280;15036;48.094;-1.690;2022-07-29T00:03:10;100920.72;;;25.89;45.02
27613;BME280;15036;48.094;-1.690;2022-07-29T00:05:35;100922.50;;;25.80;45.04
27613;BME280;15036;48.094;-1.690;2022-07-29T00:08:00;100921.97;;;25.78;45.20
27613;BME280;15036;48.094;-1.690;2022-07-29T00:10:26;100918.09;;;25.98;44.93
27613;BME280;15036;48.094;-1.690;2022-07-29T00:12:51;100918.94;;;25.98;44.56
27613;BME280;15036;48.094;-1.690;2022-07-29T00:15:17;100925.00;;;25.82;44.97
27613;BME280;15036;48.094;-1.690;2022-07-29T00:17:42;100916.19;;;25.93;44.56
27613;BME280;15036;48.094;-1.690;2022-07-29T00:20:08;100919.56;;;26.19;44.07
27613;BME280;15036;48.094;-1.690;2022-07-29T00:22:37;100913.97;;;26.19;43.58
27613;BME280;15036;48.094;-1.690;2022-07-29T00:25:03;100921.56;;;26.18;43.51
27613;BME280;15036;48.094;-1.690;2022-07-29T00:27:28;100906.59;;;26.28;43.39
27613;BME280;15036;48.094;-1.690;2022-07-29T00:29:53;100915.47;;;26.11;43.24
27613;BME280;15036;48.094;-1.690;2022-07-29T00:32:19;100911.00;;;26.10;43.42
27613;BME280;15036;48.094;-1.690;2022-07-29T00:34:44;100906.72;;;26.18;43.36
27613;BME280;15036;48.094;-1.690;2022-07-29T00:37:28;100906.91;;;25.98;43.89
27613;BME280;15036;48.094;-1.690;2022-07-29T00:39:54;100903.72;;;26.09;43.83
27613;BME280;15036;48.094;-1.690;2022-07-29T00:42:19;100904.69;;;26.23;43.48
27613;BME280;15036;48.094;-1.690;2022-07-29T00:44:45;100904.41;;;25.96;44.13
27613;BME280;15036;48.094;-1.690;2022-07-29T00:47:11;100901.09;;;25.94;44.35
27613;BME280;15036;48.094;-1.690;2022-07-29T00:49:38;100897.59;;;26.07;43.88
27613;BME280;15036;48.094;-1.690;2022-07-29T00:52:05;100892.22;;;26.11;43.79
27613;BME280;15036;48.094;-1.690;2022-07-29T00:54:32;100893.56;;;25.90;43.88
27613;BME280;15036;48.094;-1.690;2022-07-29T00:56:59;100879.16;;;25.77;44.07
27613;BME280;15036;48.094;-1.690;2022-07-29T00:59:26;100885.16;;;25.95;43.60
27613;BME280;15036;48.094;-1.690;2022-07-29T01:01:52;100893.03;;;25.88;43.63
27613;BME280;15036;48.094;-1.690;2022-07-29T01:04:19;100882.72;;;25.83;43.17
27613;BME280;15036;48.094;-1.690;2022-07-29T01:06:45;100887.28;;;26.03;42.95
27613;BME280;15036;48.094;-1.690;2022-07-29T01:09:10;100882.34;;;25.95;43.50
27613;BME280;15036;48.094;-1.690;2022-07-29T01:11:37;100888.84;;;26.14;42.81
27613;BME280;15036;48.094;-1.690;2022-07-29T01:14:03;100871.81;;;26.10;43.02
27613;BME280;15036;48.094;-1.690;2022-07-29T01:16:32;100870.72;;;26.30;42.41
27613;BME280;15036;48.094;-1.690;2022-07-29T01:19:18;100871.25;;;26.32;42.04
27613;BME280;15036;48.094;-1.690;2022-07-29T01:21:55;100876.91;;;26.03;42.37
27613;BME280;15036;48.094;-1.690;2022-07-29T01:29:44;100877.56;;;25.71;42.52
27613;BME280;15036;48.094;-1.690;2022-07-29T01:32:13;100879.69;;;26.08;41.67
27613;BME280;15036;48.094;-1.690;2022-07-29T01:34:50;100869.97;;;26.24;41.40
27613;BME280;15036;48.094;-1.690;2022-07-29T01:37:27;100873.53;;;26.30;40.94
27613;BME280;15036;48.094;-1.690;2022-07-29T01:39:55;100870.97;;;26.10;41.01
27613;BME280;15036;48.094;-1.690;2022-07-29T01:42:32;100873.28;;;26.03;41.07
27613;BME280;15036;48.094;-1.690;2022-07-29T01:45:10;100866.16;;;26.15;41.01
27613;BME280;15036;48.094;-1.690;2022-07-29T01:47:43;100870.84;;;26.20;40.68
27613;BME280;15036;48.094;-1.690;2022-07-29T01:50:12;100870.19;;;26.28;40.48
27613;BME280;15036;48.094;-1.690;2022-07-29T01:52:46;100874.91;;;26.32;40.53
27613;BME280;15036;48.094;-1.690;2022-07-29T01:55:15;100881.16;;;26.24;40.69
27613;BME280;15036;48.094;-1.690;2022-07-29T01:57:45;100868.47;;;26.32;40.40
27613;BME280;15036;48.094;-1.690;2022-07-29T02:00:12;100871.84;;;26.29;40.39
27613;BME280;15036;48.094;-1.690;2022-07-29T02:02:39;100880.00;;;26.25;40.45
27613;BME280;15036;48.094;-1.690;2022-07-29T02:05:07;100878.63;;;26.23;40.38
27613;BME280;15036;48.094;-1.690;2022-07-29T02:07:36;100885.56;;;26.49;40.24
27613;BME280;15036;48.094;-1.690;2022-07-29T02:10:03;100879.59;;;26.55;40.00
27613;BME280;15036;48.094;-1.690;2022-07-29T02:12:31;100879.97;;;26.49;40.27
27613;BME280;15036;48.094;-1.690;2022-07-29T02:14:59;100887.16;;;26.13;40.56
27613;BME280;15036;48.094;-1.690;2022-07-29T02:17:43;100882.69;;;26.35;40.06
27613;BME280;15036;48.094;-1.690;2022-07-29T02:20:11;100887.97;;;26.37;40.32
27613;BME280;15036;48.094;-1.690;2022-07-29T02:22:38;100877.16;;;26.30;39.94
27613;BME280;15036;48.094;-1.690;2022-07-29T02:25:05;100885.38;;;26.22;39.94
27613;BME280;15036;48.094;-1.690;2022-07-29T02:27:33;100886.09;;;26.32;40.01
27613;BME280;15036;48.094;-1.690;2022-07-29T02:30:01;100889.78;;;26.28;39.81
27613;BME280;15036;48.094;-1.690;2022-07-29T02:32:29;100883.00;;;26.34;39.52
27613;BME280;15036;48.094;-1.690;2022-07-29T02:34:56;100881.38;;;26.28;39.67
27613;BME280;15036;48.094;-1.690;2022-07-29T02:37:23;100877.28;;;25.97;40.00
27613;BME280;15036;48.094;-1.690;2022-07-29T02:39:52;100880.53;;;26.04;39.77
27613;BME280;15036;48.094;-1.690;2022-07-29T02:42:21;100885.16;;;26.18;39.38
27613;BME280;15036;48.094;-1.690;2022-07-29T02:44:47;100885.03;;;26.47;38.86
27613;BME280;15036;48.094;-1.690;2022-07-29T02:50:25;100881.19;;;26.43;38.77
27613;BME280;15036;48.094;-1.690;2022-07-29T02:52:53;100883.88;;;26.06;39.30
27613;BME280;15036;48.094;-1.690;2022-07-29T02:55:28;100878.59;;;26.28;38.97
27613;BME280;15036;48.094;-1.690;2022-07-29T02:57:59;100890.28;;;26.11;39.13
27613;BME280;15036;48.094;-1.690;2022-07-29T03:00:31;100881.84;;;26.35;39.02
27613;BME280;15036;48.094;-1.690;2022-07-29T03:03:03;100886.16;;;26.27;38.79
27613;BME280;15036;48.094;-1.690;2022-07-29T03:05:29;100881.56;;;26.13;39.04
27613;BME280;15036;48.094;-1.690;2022-07-29T03:08:03;100880.53;;;25.80;39.70
27613;BME280;15036;48.094;-1.690;2022-07-29T03:10:30;100891.94;;;25.89;39.44
27613;BME280;15036;48.094;-1.690;2022-07-29T03:12:57;100891.13;;;26.12;38.98
27613;BME280;15036;48.094;-1.690;2022-07-29T03:15:23;100888.63;;;26.10;38.96
27613;BME280;15036;48.094;-1.690;2022-07-29T03:17:49;100890.38;;;26.25;38.72
27613;BME280;15036;48.094;-1.690;2022-07-29T03:20:16;100876.56;;;26.33;38.43
27613;BME280;15036;48.094;-1.690;2022-07-29T03:22:42;100883.44;;;26.22;38.66
27613;BME280;15036;48.094;-1.690;2022-07-29T03:25:12;100886.50;;;26.21;38.53
27613;BME280;15036;48.094;-1.690;2022-07-29T03:27:38;100893.91;;;26.12;38.72
27613;BME280;15036;48.094;-1.690;2022-07-29T03:30:05;100885.31;;;26.27;38.45
27613;BME280;15036;48.094;-1.690;2022-07-29T03:32:30;100893.38;;;26.52;38.11
27613;BME280;15036;48.094;-1.690;2022-07-29T03:34:56;100887.69;;;26.57;38.18
27613;BME280;15036;48.094;-1.690;2022-07-29T03:37:21;100888.81;;;26.37;38.06
27613;BME280;15036;48.094;-1.690;2022-07-29T03:39:46;100889.56;;;26.24;38.10
27613;BME280;15036;48.094;-1.690;2022-07-29T03:42:14;100892.28;;;26.06;38.63
27613;BME280;15036;48.094;-1.690;2022-07-29T03:44:45;100900.34;;;25.84;39.14
27613;BME280;15036;48.094;-1.690;2022-07-29T03:47:14;100898.91;;;26.15;38.67
27613;BME280;15036;48.094;-1.690;2022-07-29T03:49:40;100895.25;;;25.91;38.98
27613;BME280;15036;48.094;-1.690;2022-07-29T03:52:07;100888.16;;;25.98;39.17
27613;BME280;15036;48.094;-1.690;2022-07-29T03:54:33;100895.66;;;25.79;39.63
27613;BME280;15036;48.094;-1.690;2022-07-29T03:57:01;100886.22;;;25.99;39.09
27613;BME280;15036;48.094;-1.690;2022-07-29T03:59:27;100894.53;;;26.04;38.86
27613;BME280;15036;48.094;-1.690;2022-07-29T04:01:53;100888.38;;;26.07;38.92
27613;BME280;15036;48.094;-1.690;2022-07-29T04:04:19;100896.03;;;25.96;39.22
27613;BME280;15036;48.094;-1.690;2022-07-29T04:06:45;100896.06;;;26.20;38.81
27613;BME280;15036;48.094;-1.690;2022-07-29T04:09:11;100908.22;;;26.05;39.11
27613;BME280;15036;48.094;-1.690;2022-07-29T04:11:41;100901.25;;;25.79;39.71
27613;BME280;15036;48.094;-1.690;2022-07-29T04:14:06;100905.19;;;26.07;39.03
27613;BME280;15036;48.094;-1.690;2022-07-29T04:16:32;100905.50;;;26.00;39.18
27613;BME280;15036;48.094;-1.690;2022-07-29T04:18:57;100910.31;;;25.71;39.57
27613;BME280;15036;48.094;-1.690;2022-07-29T04:21:23;100900.34;;;26.12;38.82
27613;BME280;15036;48.094;-1.690;2022-07-29T04:23:48;100908.06;;;25.97;39.45
27613;BME280;15036;48.094;-1.690;2022-07-29T04:26:17;100903.25;;;25.73;39.72
27613;BME280;15036;48.094;-1.690;2022-07-29T04:28:43;100902.50;;;25.92;39.38
27613;BME280;15036;48.094;-1.690;2022-07-29T04:31:10;100909.78;;;25.93;39.44
27613;BME280;15036;48.094;-1.690;2022-07-29T04:33:35;100902.50;;;25.92;39.41
27613;BME280;15036;48.094;-1.690;2022-07-29T04:36:01;100898.72;;;25.83;39.67
27613;BME280;15036;48.094;-1.690;2022-07-29T04:38:26;100902.88;;;26.09;39.29
27613;BME280;15036;48.094;-1.690;2022-07-29T04:40:51;100900.56;;;26.16;39.36
27613;BME280;15036;48.094;-1.690;2022-07-29T04:43:17;100900.66;;;26.06;39.40
27613;BME280;15036;48.094;-1.690;2022-07-29T04:45:42;100902.22;;;26.17;39.25
27613;BME280;15036;48.094;-1.690;2022-07-29T04:48:08;100907.41;;;26.05;39.53
27613;BME280;15036;48.094;-1.690;2022-07-29T04:50:33;100900.44;;;26.02;39.62
27613;BME280;15036;48.094;-1.690;2022-07-29T04:52:59;100910.69;;;26.12;39.65
27613;BME280;15036;48.094;-1.690;2022-07-29T04:55:24;100913.81;;;26.10;39.53
27613;BME280;15036;48.094;-1.690;2022-07-29T04:57:50;100909.97;;;26.25;39.37
27613;BME280;15036;48.094;-1.690;2022-07-29T05:00:16;100919.56;;;26.19;39.37
27613;BME280;15036;48.094;-1.690;2022-07-29T05:02:41;100918.09;;;25.98;39.85
27613;BME280;15036;48.094;-1.690;2022-07-29T05:05:07;100904.72;;;25.95;40.03
27613;BME280;15036;48.094;-1.690;2022-07-29T05:07:32;100916.97;;;25.75;40.47
27613;BME280;15036;48.094;-1.690;2022-07-29T05:09:58;100914.31;;;25.89;40.17
27613;BME280;15036;48.094;-1.690;2022-07-29T05:12:24;100915.47;;;26.11;39.79
27613;BME280;15036;48.094;-1.690;2022-07-29T05:14:50;100919.28;;;26.20;39.64
27613;BME280;15036;48.094;-1.690;2022-07-29T05:17:15;100927.28;;;26.03;39.87
27613;BME280;15036;48.094;-1.690;2022-07-29T05:19:40;100924.94;;;26.15;39.71
27613;BME280;15036;48.094;-1.690;2022-07-29T05:22:06;100929.31;;;26.45;39.33
27613;BME280;15036;48.094;-1.690;2022-07-29T05:24:31;100927.91;;;26.24;39.54
27613;BME280;15036;48.094;-1.690;2022-07-29T05:26:56;100935.41;;;26.05;39.81
27613;BME280;15036;48.094;-1.690;2022-07-29T05:29:22;100927.97;;;26.19;39.69
27613;BME280;15036;48.094;-1.690;2022-07-29T05:31:47;100923.38;;;26.28;39.82
27613;BME280;15036;48.094;-1.690;2022-07-29T05:34:13;100935.66;;;26.32;39.38
27613;BME280;15036;48.094;-1.690;2022-07-29T05:36:38;100933.25;;;26.44;39.29
27613;BME280;15036;48.094;-1.690;2022-07-29T05:39:03;100935.94;;;26.54;39.06
27613;BME280;15036;48.094;-1.690;2022-07-29T05:41:31;100937.44;;;26.65;38.99
27613;BME280;15036;48.094;-1.690;2022-07-29T05:43:57;100934.59;;;26.70;38.83
27613;BME280;15036;48.094;-1.690;2022-07-29T05:46:23;100937.66;;;26.69;38.71
27613;BME280;15036;48.094;-1.690;2022-07-29T05:48:49;100944.78;;;26.61;38.85
27613;BME280;15036;48.094;-1.690;2022-07-29T05:51:14;100943.47;;;26.77;38.60
27613;BME280;15036;48.094;-1.690;2022-07-29T05:53:40;100948.78;;;26.79;38.66
27613;BME280;15036;48.094;-1.690;2022-07-29T05:56:05;100949.78;;;26.88;38.36
27613;BME280;15036;48.094;-1.690;2022-07-29T05:58:31;100947.72;;;26.93;38.22
27613;BME280;15036;48.094;-1.690;2022-07-29T06:00:56;100947.94;;;26.97;38.21
27613;BME280;15036;48.094;-1.690;2022-07-29T06:03:25;100952.94;;;26.81;38.51
27613;BME280;15036;48.094;-1.690;2022-07-29T06:05:51;100955.59;;;26.91;38.23
27613;BME280;15036;48.094;-1.690;2022-07-29T06:08:17;100960.00;;;26.97;37.80
27613;BME280;15036;48.094;-1.690;2022-07-29T06:10:42;100961.13;;;26.96;37.92
27613;BME280;15036;48.094;-1.690;2022-07-29T06:13:08;100963.78;;;27.06;37.65
27613;BME280;15036;48.094;-1.690;2022-07-29T06:15:34;100957.25;;;27.29;37.23
27613;BME280;15036;48.094;-1.690;2022-07-29T06:18:00;100961.28;;;27.23;37.61
27613;BME280;15036;48.094;-1.690;2022-07-29T06:20:25;100956.88;;;27.17;37.64
27613;BME280;15036;48.094;-1.690;2022-07-29T06:22:51;100956.47;;;27.24;37.36
27613;BME280;15036;48.094;-1.690;2022-07-29T06:25:17;100951.31;;;27.50;36.95
27613;BME280;15036;48.094;-1.690;2022-07-29T06:27:42;100952.63;;;27.57;37.06
27613;BME280;15036;48.094;-1.690;2022-07-29T06:30:08;100957.06;;;27.58;36.59
27613;BME280;15036;48.094;-1.690;2022-07-29T06:32:35;100953.84;;;27.51;36.46
27613;BME280;15036;48.094;-1.690;2022-07-29T06:35:00;100962.84;;;27.48;36.85
27613;BME280;15036;48.094;-1.690;2022-07-29T06:37:26;100960.53;;;27.69;36.43
27613;BME280;15036;48.094;-1.690;2022-07-29T06:39:51;100966.72;;;27.52;36.46
27613;BME280;15036;48.094;-1.690;2022-07-29T06:42:36;100970.66;;;27.51;36.63
27613;BME280;15036;48.094;-1.690;2022-07-29T06:45:02;100970.44;;;27.80;36.10
27613;BME280;15036;48.094;-1.690;2022-07-29T06:47:27;100969.31;;;27.81;36.05
27613;BME280;15036;48.094;-1.690;2022-07-29T06:49:53;100964.75;;;27.85;35.60
27613;BME280;15036;48.094;-1.690;2022-07-29T06:52:18;100970.72;;;27.97;35.54
27613;BME280;15036;48.094;-1.690;2022-07-29T06:54:44;100969.78;;;28.15;35.36
27613;BME280;15036;48.094;-1.690;2022-07-29T06:57:13;100976.16;;;28.20;34.73
27613;BME280;15036;48.094;-1.690;2022-07-29T06:59:38;100978.44;;;28.32;34.46
27613;BME280;15036;48.094;-1.690;2022-07-29T07:02:04;100975.72;;;28.27;34.51
27613;BME280;15036;48.094;-1.690;2022-07-29T07:04:29;100971.38;;;28.48;33.92
27613;BME280;15036;48.094;-1.690;2022-07-29T07:06:55;100979.41;;;28.55;34.25
27613;BME280;15036;48.094;-1.690;2022-07-29T07:09:21;100968.13;;;28.68;33.77
27613;BME280;15036;48.094;-1.690;2022-07-29T07:11:46;100981.06;;;28.69;33.33
27613;BME280;15036;48.094;-1.690;2022-07-29T07:14:11;100980.41;;;28.86;33.04
27613;BME280;15036;48.094;-1.690;2022-07-29T07:16:37;100991.94;;;28.98;32.21
27613;BME280;15036;48.094;-1.690;2022-07-29T07:19:02;100989.44;;;28.96;31.56
27613;BME280;15036;48.094;-1.690;2022-07-29T07:21:28;100984.94;;;29.09;31.39
27613;BME280;15036;48.094;-1.690;2022-07-29T07:23:53;100992.00;;;29.20;31.56
27613;BME280;15036;48.094;-1.690;2022-07-29T07:26:19;100987.75;;;29.23;31.63
27613;BME280;15036;48.094;-1.690;2022-07-29T07:28:44;100990.91;;;29.43;31.51
27613;BME280;15036;48.094;-1.690;2022-07-29T07:31:10;101007.13;;;29.46;31.43
27613;BME280;15036;48.094;-1.690;2022-07-29T07:33:35;101002.53;;;29.50;31.52
27613;BME280;15036;48.094;-1.690;2022-07-29T07:36:01;101008.06;;;29.55;31.63
27613;BME280;15036;48.094;-1.690;2022-07-29T07:38:26;101012.88;;;29.63;31.54
27613;BME280;15036;48.094;-1.690;2022-07-29T07:40:52;101011.88;;;29.59;31.70
27613;BME280;15036;48.094;-1.690;2022-07-29T07:43:17;101016.09;;;29.70;31.25
27613;BME280;15036;48.094;-1.690;2022-07-29T07:45:42;101011.84;;;29.73;31.52
27613;BME280;15036;48.094;-1.690;2022-07-29T07:48:08;101020.00;;;29.61;31.51
27613;BME280;15036;48.094;-1.690;2022-07-29T07:50:35;101013.91;;;29.67;31.64
27613;BME280;15036;48.094;-1.690;2022-07-29T07:53:01;101015.94;;;29.89;31.42
27613;BME280;15036;48.094;-1.690;2022-07-29T07:55:27;101017.50;;;29.73;31.53
27613;BME280;15036;48.094;-1.690;2022-07-29T07:57:54;101025.59;;;29.74;31.53
27613;BME280;15036;48.094;-1.690;2022-07-29T08:00:20;101024.09;;;29.99;31.18
27613;BME280;15036;48.094;-1.690;2022-07-29T08:02:45;101021.09;;;29.95;31.51
27613;BME280;15036;48.094;-1.690;2022-07-29T08:05:11;101021.94;;;29.96;31.11
27613;BME280;15036;48.094;-1.690;2022-07-29T08:07:41;101030.75;;;30.03;30.92
27613;BME280;15036;48.094;-1.690;2022-07-29T08:10:06;101027.31;;;30.06;31.30
27613;BME280;15036;48.094;-1.690;2022-07-29T08:12:32;101027.56;;;30.27;30.82
27613;BME280;15036;48.094;-1.690;2022-07-29T08:14:57;101029.84;;;30.16;30.51
27613;BME280;15036;48.094;-1.690;2022-07-29T08:17:22;101029.16;;;30.41;30.50
27613;BME280;15036;48.094;-1.690;2022-07-29T08:19:48;101031.88;;;30.24;30.51
27613;BME280;15036;48.094;-1.690;2022-07-29T08:22:14;101035.09;;;30.31;30.95
27613;BME280;15036;48.094;-1.690;2022-07-29T08:24:40;101034.00;;;30.49;30.45
27613;BME280;15036;48.094;-1.690;2022-07-29T08:27:09;101042.34;;;30.63;30.33
27613;BME280;15036;48.094;-1.690;2022-07-29T08:29:35;101040.59;;;30.75;30.05
27613;BME280;15036;48.094;-1.690;2022-07-29T08:32:01;101041.66;;;30.97;29.97
27613;BME280;15036;48.094;-1.690;2022-07-29T08:34:27;101044.88;;;31.21;29.79
27613;BME280;15036;48.094;-1.690;2022-07-29T08:36:54;101049.72;;;31.46;29.21
27613;BME280;15036;48.094;-1.690;2022-07-29T08:39:20;101046.94;;;31.63;29.10
27613;BME280;15036;48.094;-1.690;2022-07-29T08:41:46;101052.06;;;31.78;28.86
27613;BME280;15036;48.094;-1.690;2022-07-29T08:44:13;101051.22;;;31.86;28.46
27613;BME280;15036;48.094;-1.690;2022-07-29T08:46:38;101045.06;;;32.01;28.53
27613;BME280;15036;48.094;-1.690;2022-07-29T08:49:04;101045.06;;;32.18;28.50
27613;BME280;15036;48.094;-1.690;2022-07-29T08:51:31;101045.63;;;32.50;28.11
27613;BME280;15036;48.094;-1.690;2022-07-29T08:53:58;101050.59;;;32.53;27.74
27613;BME280;15036;48.094;-1.690;2022-07-29T08:56:24;101055.31;;;32.31;27.87
27613;BME280;15036;48.094;-1.690;2022-07-29T08:58:49;101054.97;;;32.50;27.82
27613;BME280;15036;48.094;-1.690;2022-07-29T09:01:17;101059.78;;;32.50;27.96
27613;BME280;15036;48.094;-1.690;2022-07-29T09:03:46;101054.25;;;32.62;27.70
27613;BME280;15036;48.094;-1.690;2022-07-29T09:06:17;101055.31;;;32.49;28.09
27613;BME280;15036;48.094;-1.690;2022-07-29T09:08:44;101070.09;;;32.37;28.06
27613;BME280;15036;48.094;-1.690;2022-07-29T09:11:10;101060.03;;;32.19;28.28
27613;BME280;15036;48.094;-1.690;2022-07-29T09:13:36;101066.63;;;32.31;28.56
27613;BME280;15036;48.094;-1.690;2022-07-29T09:16:02;101062.28;;;32.42;28.17
27613;BME280;15036;48.094;-1.690;2022-07-29T09:21:01;101066.81;;;32.18;28.61
27613;BME280;15036;48.094;-1.690;2022-07-29T09:24:10;101071.63;;;32.17;28.41
27613;BME280;15036;48.094;-1.690;2022-07-29T09:26:40;101068.59;;;32.39;28.42
27613;BME280;15036;48.094;-1.690;2022-07-29T09:29:14;101075.09;;;32.49;28.15
27613;BME280;15036;48.094;-1.690;2022-07-29T09:31:45;101064.19;;;32.68;28.09
27613;BME280;15036;48.094;-1.690;2022-07-29T09:34:12;101076.63;;;32.75;27.78
27613;BME280;15036;48.094;-1.690;2022-07-29T09:36:39;101072.09;;;32.83;27.80
27613;BME280;15036;48.094;-1.690;2022-07-29T09:39:05;101072.06;;;33.00;27.79
27613;BME280;15036;48.094;-1.690;2022-07-29T09:41:52;101072.44;;;33.19;27.38
27613;BME280;15036;48.094;-1.690;2022-07-29T09:44:19;101074.31;;;33.36;27.56
27613;BME280;15036;48.094;-1.690;2022-07-29T09:49:19;101072.31;;;33.36;27.19
27613;BME280;15036;48.094;-1.690;2022-07-29T09:51:45;101065.38;;;33.54;27.08
27613;BME280;15036;48.094;-1.690;2022-07-29T09:54:27;101065.97;;;33.60;27.01
27613;BME280;15036;48.094;-1.690;2022-07-29T09:56:54;101072.41;;;33.69;27.04
27613;BME280;15036;48.094;-1.690;2022-07-29T09:59:20;101077.53;;;33.75;26.62
27613;BME280;15036;48.094;-1.690;2022-07-29T10:01:48;101066.94;;;33.84;26.51
27613;BME280;15036;48.094;-1.690;2022-07-29T10:04:14;101074.91;;;34.24;26.34
27613;BME280;15036;48.094;-1.690;2022-07-29T10:06:59;101071.97;;;34.20;25.98
27613;BME280;15036;48.094;-1.690;2022-07-29T10:09:25;101071.84;;;34.17;26.42
27613;BME280;15036;48.094;-1.690;2022-07-29T10:12:05;101075.41;;;34.38;25.91
27613;BME280;15036;48.094;-1.690;2022-07-29T10:14:32;101068.41;;;34.56;25.63
27613;BME280;15036;48.094;-1.690;2022-07-29T10:17:02;101077.97;;;34.51;25.57
27613;BME280;15036;48.094;-1.690;2022-07-29T10:19:29;101076.94;;;34.80;25.30
27613;BME280;15036;48.094;-1.690;2022-07-29T10:21:57;101064.53;;;34.72;25.78
27613;BME280;15036;48.094;-1.690;2022-07-29T10:24:25;101076.38;;;34.99;24.92
27613;BME280;15036;48.094;-1.690;2022-07-29T10:26:52;101070.78;;;35.14;24.88
27613;BME280;15036;48.094;-1.690;2022-07-29T10:29:18;101076.22;;;34.95;24.97
27613;BME280;15036;48.094;-1.690;2022-07-29T10:34:36;101079.38;;;35.66;24.38
27613;BME280;15036;48.094;-1.690;2022-07-29T10:43:25;101080.09;;;36.03;24.27
27613;BME280;15036;48.094;-1.690;2022-07-29T10:45:56;101081.28;;;36.02;24.65
27613;BME280;15036;48.094;-1.690;2022-07-29T10:48:23;101087.25;;;35.85;25.16
27613;BME280;15036;48.094;-1.690;2022-07-29T10:50:56;101085.97;;;36.10;24.08
27613;BME280;15036;48.094;-1.690;2022-07-29T10:53:23;101092.53;;;36.26;24.35
27613;BME280;15036;48.094;-1.690;2022-07-29T10:55:51;101094.00;;;36.20;24.39
27613;BME280;15036;48.094;-1.690;2022-07-29T11:00:42;101087.22;;;35.97;24.71
27613;BME280;15036;48.094;-1.690;2022-07-29T11:03:07;101084.16;;;36.17;24.58
27613;BME280;15036;48.094;-1.690;2022-07-29T11:05:52;101086.66;;;36.19;24.72
27613;BME280;15036;48.094;-1.690;2022-07-29T11:08:19;101088.25;;;36.32;24.07
27613;BME280;15036;48.094;-1.690;2022-07-29T11:10:51;101079.97;;;36.70;24.16
27613;BME280;15036;48.094;-1.690;2022-07-29T11:16:06;101089.41;;;36.59;23.92
27613;BME280;15036;48.094;-1.690;2022-07-29T11:18:31;101078.38;;;36.41;24.44
27613;BME280;15036;48.094;-1.690;2022-07-29T11:20:57;101074.28;;;36.70;23.79
27613;BME280;15036;48.094;-1.690;2022-07-29T11:23:28;101082.91;;;36.74;23.53
27613;BME280;15036;48.094;-1.690;2022-07-29T11:26:17;101072.97;;;36.83;23.85
27613;BME280;15036;48.094;-1.690;2022-07-29T11:31:31;101081.50;;;36.83;23.59
27613;BME280;15036;48.094;-1.690;2022-07-29T11:39:35;101079.50;;;36.68;23.90
27613;BME280;15036;48.094;-1.690;2022-07-29T11:47:20;101077.13;;;37.01;23.53
27613;BME280;15036;48.094;-1.690;2022-07-29T11:49:47;101068.19;;;37.03;23.35
27613;BME280;15036;48.094;-1.690;2022-07-29T11:52:13;101079.22;;;36.73;23.96
27613;BME280;15036;48.094;-1.690;2022-07-29T11:54:41;101082.34;;;36.68;23.74
27613;BME280;15036;48.094;-1.690;2022-07-29T11:57:07;101082.97;;;36.77;23.66
27613;BME280;15036;48.094;-1.690;2022-07-29T11:59:39;101089.41;;;36.59;23.95
27613;BME280;15036;48.094;-1.690;2022-07-29T12:02:06;101081.97;;;36.54;23.91
27613;BME280;15036;48.094;-1.690;2022-07-29T12:04:32;101078.13;;;36.78;23.82
27613;BME280;15036;48.094;-1.690;2022-07-29T12:06:58;101078.03;;;37.05;23.48
27613;BME280;15036;48.094;-1.690;2022-07-29T12:09:24;101075.53;;;36.57;24.13
27613;BME280;15036;48.094;-1.690;2022-07-29T12:11:56;101066.47;;;37.14;23.68
27613;BME280;15036;48.094;-1.690;2022-07-29T12:14:32;101074.75;;;37.38;23.40
27613;BME280;15036;48.094;-1.690;2022-07-29T12:16:59;101074.16;;;37.64;23.01
27613;BME280;15036;48.094;-1.690;2022-07-29T12:19:25;101072.22;;;38.06;22.53
27613;BME280;15036;48.094;-1.690;2022-07-29T12:21:53;101073.75;;;38.42;22.02
27613;BME280;15036;48.094;-1.690;2022-07-29T12:24:20;101067.75;;;38.92;21.52
27613;BME280;15036;48.094;-1.690;2022-07-29T12:26:54;101069.72;;;39.37;21.04
27613;BME280;15036;48.094;-1.690;2022-07-29T12:29:20;101074.94;;;39.57;20.63
27613;BME280;15036;48.094;-1.690;2022-07-29T12:31:45;101079.34;;;39.81;20.79
27613;BME280;15036;48.094;-1.690;2022-07-29T12:34:12;101084.69;;;39.82;20.17
27613;BME280;15036;48.094;-1.690;2022-07-29T12:36:39;101079.19;;;39.70;20.41
27613;BME280;15036;48.094;-1.690;2022-07-29T12:39:05;101086.78;;;39.07;21.10
27613;BME280;15036;48.094;-1.690;2022-07-29T12:41:31;101082.88;;;38.28;21.83
27613;BME280;15036;48.094;-1.690;2022-07-29T12:43:57;101080.47;;;38.94;20.79
27613;BME280;15036;48.094;-1.690;2022-07-29T12:46:23;101077.38;;;39.07;20.95
27613;BME280;15036;48.094;-1.690;2022-07-29T12:48:52;101075.28;;;39.26;21.10
27613;BME280;15036;48.094;-1.690;2022-07-29T12:51:33;101086.06;;;39.66;20.81
27613;BME280;15036;48.094;-1.690;2022-07-29T12:56:32;101093.25;;;40.12;20.10
27613;BME280;15036;48.094;-1.690;2022-07-29T12:58:58;101084.09;;;40.00;20.26
27613;BME280;15036;48.094;-1.690;2022-07-29T13:01:23;101083.19;;;39.10;21.49
27613;BME280;15036;48.094;-1.690;2022-07-29T13:03:58;101083.28;;;37.54;22.89
27613;BME280;15036;48.094;-1.690;2022-07-29T13:14:01;101074.25;;;37.32;23.33
27613;BME280;15036;48.094;-1.690;2022-07-29T13:16:27;101084.28;;;36.21;25.00
27613;BME280;15036;48.094;-1.690;2022-07-29T13:19:05;101072.38;;;37.24;23.58
27613;BME280;15036;48.094;-1.690;2022-07-29T13:21:31;101069.75;;;36.53;24.30
27613;BME280;15036;48.094;-1.690;2022-07-29T13:23:57;101073.13;;;35.36;25.89
27613;BME280;15036;48.094;-1.690;2022-07-29T13:26:22;101074.84;;;36.32;24.58
27613;BME280;15036;48.094;-1.690;2022-07-29T13:28:47;101070.66;;;36.73;24.11
27613;BME280;15036;48.094;-1.690;2022-07-29T13:31:13;101065.28;;;36.99;23.72
27613;BME280;15036;48.094;-1.690;2022-07-29T13:33:38;101067.72;;;36.85;23.90